sensor_id;sensor_type;location;lat;lon;timestamp;P1;durP1;ratioP1;P2;durP2;ratioP2
80187;SDS011;73735;52.134;5.436;2024-03-23T00:53:38;18.10;;;5.90;;
80187;SDS011;73735;52.134;5.436;2024-03-23T00:56:04;16.58;;;5.85;;
80187;SDS011;73735;52.134;5.436;2024-03-23T00:58:30;14.90;;;6.25;;
80187;SDS011;73735;52.134;5.436;2024-03-23T01:00:55;13.25;;;5.80;;
80187;SDS011;73735;52.134;5.436;2024-03-23T01:03:21;13.85;;;5.47;;
80187;SDS011;73735;52.134;5.436;2024-03-23T01:05:46;15.77;;;6.13;;
80187;SDS011;73735;52.134;5.436;2024-03-23T01:08:14;16.58;;;6.53;;
80187;SDS011;73735;52.134;5.436;2024-03-23T01:10:39;18.85;;;5.82;;
80187;SDS011;73735;52.134;5.436;2024-03-23T01:13:05;14.82;;;5.28;;
80187;SDS011;73735;52.134;5.436;2024-03-23T01:15:31;13.43;;;5.10;;
80187;SDS011;73735;52.134;5.436;2024-03-23T01:17:56;18.75;;;5.60;;
80187;SDS011;73735;52.134;5.436;2024-03-23T01:20:22;17.25;;;5.70;;
80187;SDS011;73735;52.134;5.436;2024-03-23T01:22:48;19.33;;;6.10;;
80187;SDS011;73735;52.134;5.436;2024-03-23T01:25:13;15.30;;;5.85;;
80187;SDS011;73735;52.134;5.436;2024-03-23T01:27:39;15.90;;;5.85;;
80187;SDS011;73735;52.134;5.436;2024-03-23T01:30:04;14.70;;;5.93;;
80187;SDS011;73735;52.134;5.436;2024-03-23T01:32:30;17.40;;;5.97;;
80187;SDS011;73735;52.134;5.436;2024-03-23T01:34:56;17.15;;;5.82;;
80187;SDS011;73735;52.134;5.436;2024-03-23T01:37:21;17.33;;;5.68;;
80187;SDS011;73735;52.134;5.436;2024-03-23T01:39:47;16.15;;;5.95;;
80187;SDS011;73735;52.134;5.436;2024-03-23T01:42:12;15.90;;;5.70;;
80187;SDS011;73735;52.134;5.436;2024-03-23T01:44:38;14.35;;;5.15;;
80187;SDS011;73735;52.134;5.436;2024-03-23T01:47:03;16.10;;;5.47;;
80187;SDS011;73735;52.134;5.436;2024-03-23T01:49:29;16.00;;;6.15;;
80187;SDS011;73735;52.134;5.436;2024-03-23T01:51:54;15.13;;;5.65;;
80187;SDS011;73735;52.134;5.436;2024-03-23T01:54:20;15.90;;;5.53;;
80187;SDS011;73735;52.134;5.436;2024-03-23T01:56:46;18.17;;;6.13;;
80187;SDS011;73735;52.134;5.436;2024-03-23T01:59:12;15.10;;;5.88;;
80187;SDS011;73735;52.134;5.436;2024-03-23T02:01:38;14.82;;;5.43;;
80187;SDS011;73735;52.134;5.436;2024-03-23T02:04:03;16.88;;;6.20;;
80187;SDS011;73735;52.134;5.436;2024-03-23T02:06:30;16.00;;;5.90;;
80187;SDS011;73735;52.134;5.436;2024-03-23T02:08:55;14.15;;;5.68;;
80187;SDS011;73735;52.134;5.436;2024-03-23T02:11:21;12.60;;;5.18;;
80187;SDS011;73735;52.134;5.436;2024-03-23T02:13:47;16.35;;;6.03;;
80187;SDS011;73735;52.134;5.436;2024-03-23T02:16:13;14.63;;;6.65;;
80187;SDS011;73735;52.134;5.436;2024-03-23T02:18:39;14.13;;;6.00;;
80187;SDS011;73735;52.134;5.436;2024-03-23T02:21:04;16.55;;;5.45;;
80187;SDS011;73735;52.134;5.436;2024-03-23T02:23:30;17.92;;;6.30;;
80187;SDS011;73735;52.134;5.436;2024-03-23T02:25:56;16.13;;;5.72;;
80187;SDS011;73735;52.134;5.436;2024-03-23T02:28:22;12.48;;;5.45;;
80187;SDS011;73735;52.134;5.436;2024-03-23T02:30:50;18.63;;;5.90;;
80187;SDS011;73735;52.134;5.436;2024-03-23T02:33:16;13.57;;;5.10;;
80187;SDS011;73735;52.134;5.436;2024-03-23T02:35:41;16.35;;;5.57;;
80187;SDS011;73735;52.134;5.436;2024-03-23T02:38:08;13.50;;;5.63;;
80187;SDS011;73735;52.134;5.436;2024-03-23T02:40:33;15.57;;;5.57;;
80187;SDS011;73735;52.134;5.436;2024-03-23T02:42:59;14.38;;;5.20;;
80187;SDS011;73735;52.134;5.436;2024-03-23T02:45:24;15.70;;;5.70;;
80187;SDS011;73735;52.134;5.436;2024-03-23T02:47:50;17.45;;;5.68;;
80187;SDS011;73735;52.134;5.436;2024-03-23T02:50:20;15.80;;;5.35;;
80187;SDS011;73735;52.134;5.436;2024-03-23T02:52:46;13.95;;;5.28;;
80187;SDS011;73735;52.134;5.436;2024-03-23T02:55:12;15.57;;;5.40;;
80187;SDS011;73735;52.134;5.436;2024-03-23T02:57:37;11.85;;;4.85;;
80187;SDS011;73735;52.134;5.436;2024-03-23T03:00:03;14.18;;;5.03;;
80187;SDS011;73735;52.134;5.436;2024-03-23T03:02:30;11.02;;;4.90;;
80187;SDS011;73735;52.134;5.436;2024-03-23T03:04:55;13.52;;;4.80;;
80187;SDS011;73735;52.134;5.436;2024-03-23T03:07:20;13.95;;;4.85;;
80187;SDS011;73735;52.134;5.436;2024-03-23T03:09:46;11.50;;;4.80;;
80187;SDS011;73735;52.134;5.436;2024-03-23T03:12:11;12.60;;;4.03;;
80187;SDS011;73735;52.134;5.436;2024-03-23T03:14:37;12.52;;;4.10;;
80187;SDS011;73735;52.134;5.436;2024-03-23T03:17:02;11.02;;;4.18;;
80187;SDS011;73735;52.134;5.436;2024-03-23T03:19:29;14.93;;;4.50;;
80187;SDS011;73735;52.134;5.436;2024-03-23T03:21:55;14.38;;;4.72;;
80187;SDS011;73735;52.134;5.436;2024-03-23T03:24:20;11.48;;;4.22;;
80187;SDS011;73735;52.134;5.436;2024-03-23T03:26:46;14.60;;;4.72;;
80187;SDS011;73735;52.134;5.436;2024-03-23T03:29:12;14.52;;;4.50;;
80187;SDS011;73735;52.134;5.436;2024-03-23T03:31:38;12.60;;;3.97;;
80187;SDS011;73735;52.134;5.436;2024-03-23T03:34:04;12.95;;;4.50;;
80187;SDS011;73735;52.134;5.436;2024-03-23T03:36:29;9.65;;;4.28;;
80187;SDS011;73735;52.134;5.436;2024-03-23T03:38:55;13.95;;;4.43;;
80187;SDS011;73735;52.134;5.436;2024-03-23T03:41:21;10.82;;;3.53;;
80187;SDS011;73735;52.134;5.436;2024-03-23T03:43:46;14.32;;;4.03;;
80187;SDS011;73735;52.134;5.436;2024-03-23T03:46:12;11.48;;;3.72;;
80187;SDS011;73735;52.134;5.436;2024-03-23T03:48:37;11.15;;;3.80;;
80187;SDS011;73735;52.134;5.436;2024-03-23T03:51:03;12.15;;;3.95;;
80187;SDS011;73735;52.134;5.436;2024-03-23T03:53:29;11.05;;;4.20;;
80187;SDS011;73735;52.134;5.436;2024-03-23T03:55:56;15.32;;;3.70;;
80187;SDS011;73735;52.134;5.436;2024-03-23T03:58:22;11.32;;;3.60;;
80187;SDS011;73735;52.134;5.436;2024-03-23T04:00:47;11.88;;;4.30;;
80187;SDS011;73735;52.134;5.436;2024-03-23T04:03:13;13.93;;;3.83;;
80187;SDS011;73735;52.134;5.436;2024-03-23T04:05:38;14.38;;;4.15;;
80187;SDS011;73735;52.134;5.436;2024-03-23T04:08:04;9.43;;;3.67;;
80187;SDS011;73735;52.134;5.436;2024-03-23T04:10:30;9.60;;;3.30;;
80187;SDS011;73735;52.134;5.436;2024-03-23T04:12:56;11.65;;;3.83;;
80187;SDS011;73735;52.134;5.436;2024-03-23T04:15:22;11.35;;;3.90;;
80187;SDS011;73735;52.134;5.436;2024-03-23T04:17:47;10.73;;;3.95;;
80187;SDS011;73735;52.134;5.436;2024-03-23T04:20:13;9.07;;;4.00;;
80187;SDS011;73735;52.134;5.436;2024-03-23T04:22:42;13.40;;;4.00;;
80187;SDS011;73735;52.134;5.436;2024-03-23T04:25:08;11.23;;;3.78;;
80187;SDS011;73735;52.134;5.436;2024-03-23T04:27:36;11.05;;;3.50;;
80187;SDS011;73735;52.134;5.436;2024-03-23T04:30:02;13.23;;;3.63;;
80187;SDS011;73735;52.134;5.436;2024-03-23T04:34:55;13.43;;;4.40;;
80187;SDS011;73735;52.134;5.436;2024-03-23T04:37:22;12.38;;;3.67;;
80187;SDS011;73735;52.134;5.436;2024-03-23T04:39:48;12.27;;;4.15;;
80187;SDS011;73735;52.134;5.436;2024-03-23T04:42:16;12.23;;;4.10;;
80187;SDS011;73735;52.134;5.436;2024-03-23T04:44:42;9.40;;;3.95;;
80187;SDS011;73735;52.134;5.436;2024-03-23T04:47:08;11.88;;;4.20;;
80187;SDS011;73735;52.134;5.436;2024-03-23T04:49:33;9.75;;;3.35;;
80187;SDS011;73735;52.134;5.436;2024-03-23T04:52:02;11.75;;;4.15;;
80187;SDS011;73735;52.134;5.436;2024-03-23T04:54:29;9.75;;;3.78;;
80187;SDS011;73735;52.134;5.436;2024-03-23T04:56:54;11.98;;;3.50;;
80187;SDS011;73735;52.134;5.436;2024-03-23T04:59:20;9.25;;;3.60;;
80187;SDS011;73735;52.134;5.436;2024-03-23T05:01:45;9.25;;;3.10;;
80187;SDS011;73735;52.134;5.436;2024-03-23T05:04:11;11.30;;;3.08;;
80187;SDS011;73735;52.134;5.436;2024-03-23T05:06:36;12.48;;;3.22;;
80187;SDS011;73735;52.134;5.436;2024-03-23T05:09:02;13.00;;;3.63;;
80187;SDS011;73735;52.134;5.436;2024-03-23T05:11:40;9.02;;;3.08;;
80187;SDS011;73735;52.134;5.436;2024-03-23T05:14:07;9.43;;;2.90;;
80187;SDS011;73735;52.134;5.436;2024-03-23T05:16:33;8.13;;;2.58;;
80187;SDS011;73735;52.134;5.436;2024-03-23T05:18:58;13.07;;;3.15;;
80187;SDS011;73735;52.134;5.436;2024-03-23T05:21:24;9.07;;;2.55;;
80187;SDS011;73735;52.134;5.436;2024-03-23T05:23:49;7.75;;;2.70;;
80187;SDS011;73735;52.134;5.436;2024-03-23T05:26:16;7.90;;;2.88;;
80187;SDS011;73735;52.134;5.436;2024-03-23T05:28:42;9.55;;;2.63;;
80187;SDS011;73735;52.134;5.436;2024-03-23T05:31:07;10.32;;;2.60;;
80187;SDS011;73735;52.134;5.436;2024-03-23T05:33:34;10.68;;;2.53;;
80187;SDS011;73735;52.134;5.436;2024-03-23T05:36:02;8.02;;;2.33;;
80187;SDS011;73735;52.134;5.436;2024-03-23T05:38:29;7.30;;;2.40;;
80187;SDS011;73735;52.134;5.436;2024-03-23T05:40:58;11.75;;;2.67;;
80187;SDS011;73735;52.134;5.436;2024-03-23T05:43:25;8.27;;;2.20;;
80187;SDS011;73735;52.134;5.436;2024-03-23T05:48:23;6.63;;;2.10;;
80187;SDS011;73735;52.134;5.436;2024-03-23T05:50:49;6.18;;;2.10;;
80187;SDS011;73735;52.134;5.436;2024-03-23T05:53:15;8.98;;;2.85;;
80187;SDS011;73735;52.134;5.436;2024-03-23T05:55:42;5.93;;;1.65;;
80187;SDS011;73735;52.134;5.436;2024-03-23T05:58:07;9.43;;;2.50;;
80187;SDS011;73735;52.134;5.436;2024-03-23T06:00:33;6.20;;;1.92;;
80187;SDS011;73735;52.134;5.436;2024-03-23T06:02:59;8.82;;;2.33;;
80187;SDS011;73735;52.134;5.436;2024-03-23T06:05:24;8.23;;;2.20;;
80187;SDS011;73735;52.134;5.436;2024-03-23T06:07:50;10.10;;;2.45;;
80187;SDS011;73735;52.134;5.436;2024-03-23T06:10:15;8.90;;;2.33;;
80187;SDS011;73735;52.134;5.436;2024-03-23T06:12:41;6.30;;;1.77;;
80187;SDS011;73735;52.134;5.436;2024-03-23T06:15:07;13.45;;;3.00;;
80187;SDS011;73735;52.134;5.436;2024-03-23T06:17:36;6.50;;;1.83;;
80187;SDS011;73735;52.134;5.436;2024-03-23T06:20:02;7.32;;;1.70;;
80187;SDS011;73735;52.134;5.436;2024-03-23T06:22:27;5.25;;;1.60;;
80187;SDS011;73735;52.134;5.436;2024-03-23T06:24:53;8.38;;;2.00;;
80187;SDS011;73735;52.134;5.436;2024-03-23T06:27:18;7.03;;;1.90;;
80187;SDS011;73735;52.134;5.436;2024-03-23T06:29:44;9.85;;;2.05;;
80187;SDS011;73735;52.134;5.436;2024-03-23T06:32:09;6.72;;;1.50;;
80187;SDS011;73735;52.134;5.436;2024-03-23T06:34:35;6.82;;;1.38;;
80187;SDS011;73735;52.134;5.436;2024-03-23T06:37:00;9.13;;;1.90;;
80187;SDS011;73735;52.134;5.436;2024-03-23T06:39:26;6.38;;;1.73;;
80187;SDS011;73735;52.134;5.436;2024-03-23T06:41:52;8.32;;;1.50;;
80187;SDS011;73735;52.134;5.436;2024-03-23T06:44:19;8.75;;;1.73;;
80187;SDS011;73735;52.134;5.436;2024-03-23T06:46:45;7.63;;;1.70;;
80187;SDS011;73735;52.134;5.436;2024-03-23T06:49:10;6.70;;;1.63;;
80187;SDS011;73735;52.134;5.436;2024-03-23T06:51:36;6.80;;;2.08;;
80187;SDS011;73735;52.134;5.436;2024-03-23T06:54:06;9.88;;;1.75;;
80187;SDS011;73735;52.134;5.436;2024-03-23T06:56:31;7.72;;;1.83;;
80187;SDS011;73735;52.134;5.436;2024-03-23T06:58:57;8.65;;;1.90;;
80187;SDS011;73735;52.134;5.436;2024-03-23T07:01:23;11.00;;;1.70;;
80187;SDS011;73735;52.134;5.436;2024-03-23T07:03:48;5.45;;;1.73;;
80187;SDS011;73735;52.134;5.436;2024-03-23T07:06:14;8.55;;;1.90;;
80187;SDS011;73735;52.134;5.436;2024-03-23T07:08:39;8.35;;;1.48;;
80187;SDS011;73735;52.134;5.436;2024-03-23T07:11:05;7.38;;;1.60;;
80187;SDS011;73735;52.134;5.436;2024-03-23T07:13:30;9.45;;;1.98;;
80187;SDS011;73735;52.134;5.436;2024-03-23T07:15:56;4.85;;;1.45;;
80187;SDS011;73735;52.134;5.436;2024-03-23T07:18:22;7.35;;;1.70;;
80187;SDS011;73735;52.134;5.436;2024-03-23T07:20:54;7.78;;;1.95;;
80187;SDS011;73735;52.134;5.436;2024-03-23T07:23:24;9.75;;;1.98;;
80187;SDS011;73735;52.134;5.436;2024-03-23T07:25:56;9.90;;;1.88;;
80187;SDS011;73735;52.134;5.436;2024-03-23T07:28:22;8.68;;;2.28;;
80187;SDS011;73735;52.134;5.436;2024-03-23T07:30:48;8.30;;;2.17;;
80187;SDS011;73735;52.134;5.436;2024-03-23T07:33:13;8.55;;;2.10;;
80187;SDS011;73735;52.134;5.436;2024-03-23T07:35:38;7.78;;;2.10;;
80187;SDS011;73735;52.134;5.436;2024-03-23T07:38:04;9.65;;;2.30;;
80187;SDS011;73735;52.134;5.436;2024-03-23T07:40:30;7.90;;;2.00;;
80187;SDS011;73735;52.134;5.436;2024-03-23T07:42:56;6.45;;;2.00;;
80187;SDS011;73735;52.134;5.436;2024-03-23T07:45:22;11.05;;;1.90;;
80187;SDS011;73735;52.134;5.436;2024-03-23T07:47:47;5.22;;;1.58;;
80187;SDS011;73735;52.134;5.436;2024-03-23T07:50:13;6.75;;;1.73;;
80187;SDS011;73735;52.134;5.436;2024-03-23T07:52:38;7.65;;;2.70;;
80187;SDS011;73735;52.134;5.436;2024-03-23T07:55:04;5.72;;;1.60;;
80187;SDS011;73735;52.134;5.436;2024-03-23T07:57:29;7.13;;;1.80;;
80187;SDS011;73735;52.134;5.436;2024-03-23T07:59:55;9.23;;;1.75;;
80187;SDS011;73735;52.134;5.436;2024-03-23T08:02:20;9.20;;;1.70;;
80187;SDS011;73735;52.134;5.436;2024-03-23T08:04:46;10.77;;;2.20;;
80187;SDS011;73735;52.134;5.436;2024-03-23T08:07:11;7.32;;;1.70;;
80187;SDS011;73735;52.134;5.436;2024-03-23T08:09:39;9.18;;;2.22;;
80187;SDS011;73735;52.134;5.436;2024-03-23T08:12:05;6.25;;;1.48;;
80187;SDS011;73735;52.134;5.436;2024-03-23T08:14:31;8.40;;;1.80;;
80187;SDS011;73735;52.134;5.436;2024-03-23T08:16:56;7.80;;;1.58;;
80187;SDS011;73735;52.134;5.436;2024-03-23T08:19:22;8.52;;;1.70;;
80187;SDS011;73735;52.134;5.436;2024-03-23T08:21:47;9.32;;;2.00;;
80187;SDS011;73735;52.134;5.436;2024-03-23T08:24:14;9.70;;;1.63;;
80187;SDS011;73735;52.134;5.436;2024-03-23T08:26:39;9.23;;;1.52;;
80187;SDS011;73735;52.134;5.436;2024-03-23T08:29:05;9.25;;;1.60;;
80187;SDS011;73735;52.134;5.436;2024-03-23T08:31:30;9.55;;;1.75;;
80187;SDS011;73735;52.134;5.436;2024-03-23T08:33:56;6.75;;;1.50;;
80187;SDS011;73735;52.134;5.436;2024-03-23T08:36:21;8.02;;;1.67;;
80187;SDS011;73735;52.134;5.436;2024-03-23T08:38:47;6.60;;;1.60;;
80187;SDS011;73735;52.134;5.436;2024-03-23T08:41:15;9.73;;;1.67;;
80187;SDS011;73735;52.134;5.436;2024-03-23T08:43:41;7.22;;;1.55;;
80187;SDS011;73735;52.134;5.436;2024-03-23T08:46:07;8.13;;;1.63;;
80187;SDS011;73735;52.134;5.436;2024-03-23T08:48:46;7.60;;;1.38;;
80187;SDS011;73735;52.134;5.436;2024-03-23T08:51:14;7.47;;;1.33;;
80187;SDS011;73735;52.134;5.436;2024-03-23T08:53:41;6.10;;;1.27;;
80187;SDS011;73735;52.134;5.436;2024-03-23T08:56:07;7.90;;;1.85;;
80187;SDS011;73735;52.134;5.436;2024-03-23T08:58:34;7.18;;;1.52;;
80187;SDS011;73735;52.134;5.436;2024-03-23T09:01:04;4.72;;;1.40;;
80187;SDS011;73735;52.134;5.436;2024-03-23T09:03:34;6.38;;;1.55;;
80187;SDS011;73735;52.134;5.436;2024-03-23T09:06:00;7.30;;;1.50;;
80187;SDS011;73735;52.134;5.436;2024-03-23T09:08:26;5.78;;;1.67;;
80187;SDS011;73735;52.134;5.436;2024-03-23T09:10:52;7.78;;;1.70;;
80187;SDS011;73735;52.134;5.436;2024-03-23T09:13:18;5.20;;;1.45;;
80187;SDS011;73735;52.134;5.436;2024-03-23T09:15:47;3.95;;;1.10;;
80187;SDS011;73735;52.134;5.436;2024-03-23T09:18:14;6.68;;;1.35;;
80187;SDS011;73735;52.134;5.436;2024-03-23T09:20:40;6.30;;;1.58;;
80187;SDS011;73735;52.134;5.436;2024-03-23T09:23:05;7.32;;;1.63;;
80187;SDS011;73735;52.134;5.436;2024-03-23T09:25:31;5.60;;;1.35;;
80187;SDS011;73735;52.134;5.436;2024-03-23T09:27:57;6.13;;;1.30;;
80187;SDS011;73735;52.134;5.436;2024-03-23T09:30:23;5.93;;;1.35;;
80187;SDS011;73735;52.134;5.436;2024-03-23T09:32:49;4.90;;;1.10;;
80187;SDS011;73735;52.134;5.436;2024-03-23T09:35:14;3.60;;;1.10;;
80187;SDS011;73735;52.134;5.436;2024-03-23T09:37:40;5.47;;;1.17;;
80187;SDS011;73735;52.134;5.436;2024-03-23T09:40:14;7.50;;;1.23;;
80187;SDS011;73735;52.134;5.436;2024-03-23T09:42:40;6.30;;;1.60;;
80187;SDS011;73735;52.134;5.436;2024-03-23T09:45:16;9.63;;;1.83;;
80187;SDS011;73735;52.134;5.436;2024-03-23T09:50:12;4.97;;;1.02;;
80187;SDS011;73735;52.134;5.436;2024-03-23T09:52:38;3.95;;;0.88;;
80187;SDS011;73735;52.134;5.436;2024-03-23T09:55:04;5.95;;;0.90;;
80187;SDS011;73735;52.134;5.436;2024-03-23T09:57:29;5.15;;;1.25;;
80187;SDS011;73735;52.134;5.436;2024-03-23T09:59:55;5.70;;;1.33;;
80187;SDS011;73735;52.134;5.436;2024-03-23T10:02:22;7.97;;;1.58;;
80187;SDS011;73735;52.134;5.436;2024-03-23T10:04:48;7.40;;;1.35;;
80187;SDS011;73735;52.134;5.436;2024-03-23T10:07:20;8.55;;;1.65;;
80187;SDS011;73735;52.134;5.436;2024-03-23T10:09:49;8.73;;;1.70;;
80187;SDS011;73735;52.134;5.436;2024-03-23T10:12:17;8.25;;;1.60;;
80187;SDS011;73735;52.134;5.436;2024-03-23T10:14:43;8.63;;;1.58;;
80187;SDS011;73735;52.134;5.436;2024-03-23T10:17:11;7.45;;;1.50;;
80187;SDS011;73735;52.134;5.436;2024-03-23T10:19:47;6.78;;;1.50;;
80187;SDS011;73735;52.134;5.436;2024-03-23T10:24:42;7.47;;;1.67;;
80187;SDS011;73735;52.134;5.436;2024-03-23T10:27:08;3.25;;;1.10;;
80187;SDS011;73735;52.134;5.436;2024-03-23T10:29:33;5.78;;;1.50;;
80187;SDS011;73735;52.134;5.436;2024-03-23T10:32:09;5.82;;;1.40;;
80187;SDS011;73735;52.134;5.436;2024-03-23T10:34:38;9.38;;;1.52;;
80187;SDS011;73735;52.134;5.436;2024-03-23T10:37:05;8.80;;;1.17;;
80187;SDS011;73735;52.134;5.436;2024-03-23T10:39:35;3.90;;;1.10;;
80187;SDS011;73735;52.134;5.436;2024-03-23T10:42:03;7.53;;;1.67;;
80187;SDS011;73735;52.134;5.436;2024-03-23T10:44:31;6.18;;;1.30;;
80187;SDS011;73735;52.134;5.436;2024-03-23T10:46:58;8.45;;;1.52;;
80187;SDS011;73735;52.134;5.436;2024-03-23T10:49:35;5.53;;;1.33;;
80187;SDS011;73735;52.134;5.436;2024-03-23T10:52:01;7.75;;;1.75;;
80187;SDS011;73735;52.134;5.436;2024-03-23T10:54:29;7.40;;;1.88;;
80187;SDS011;73735;52.134;5.436;2024-03-23T10:57:05;6.85;;;1.73;;
80187;SDS011;73735;52.134;5.436;2024-03-23T10:59:36;4.45;;;1.10;;
80187;SDS011;73735;52.134;5.436;2024-03-23T11:04:32;3.95;;;1.00;;
80187;SDS011;73735;52.134;5.436;2024-03-23T11:06:59;5.05;;;1.50;;
80187;SDS011;73735;52.134;5.436;2024-03-23T11:15:05;7.38;;;2.22;;
80187;SDS011;73735;52.134;5.436;2024-03-23T11:17:36;7.60;;;1.60;;
80187;SDS011;73735;52.134;5.436;2024-03-23T11:20:05;6.40;;;1.35;;
80187;SDS011;73735;52.134;5.436;2024-03-23T11:25:15;5.18;;;1.60;;
80187;SDS011;73735;52.134;5.436;2024-03-23T11:27:42;8.88;;;1.60;;
80187;SDS011;73735;52.134;5.436;2024-03-23T11:30:10;9.23;;;1.35;;
80187;SDS011;73735;52.134;5.436;2024-03-23T11:32:39;7.05;;;1.20;;
80187;SDS011;73735;52.134;5.436;2024-03-23T11:35:05;6.25;;;1.45;;
80187;SDS011;73735;52.134;5.436;2024-03-23T11:37:31;6.10;;;1.50;;
80187;SDS011;73735;52.134;5.436;2024-03-23T11:39:57;4.70;;;1.10;;
80187;SDS011;73735;52.134;5.436;2024-03-23T11:42:22;8.00;;;1.50;;
80187;SDS011;73735;52.134;5.436;2024-03-23T11:44:48;7.82;;;1.42;;
80187;SDS011;73735;52.134;5.436;2024-03-23T11:47:13;6.10;;;1.10;;
80187;SDS011;73735;52.134;5.436;2024-03-23T11:49:39;8.48;;;1.40;;
80187;SDS011;73735;52.134;5.436;2024-03-23T11:52:06;7.75;;;1.00;;
80187;SDS011;73735;52.134;5.436;2024-03-23T11:54:32;5.80;;;1.40;;
80187;SDS011;73735;52.134;5.436;2024-03-23T11:56:59;8.02;;;1.33;;
80187;SDS011;73735;52.134;5.436;2024-03-23T11:59:39;6.05;;;1.45;;
80187;SDS011;73735;52.134;5.436;2024-03-23T12:02:08;5.50;;;0.85;;
80187;SDS011;73735;52.134;5.436;2024-03-23T12:04:39;5.60;;;1.13;;
80187;SDS011;73735;52.134;5.436;2024-03-23T12:07:09;7.93;;;1.27;;
80187;SDS011;73735;52.134;5.436;2024-03-23T12:09:34;5.78;;;1.20;;
80187;SDS011;73735;52.134;5.436;2024-03-23T12:12:05;5.18;;;1.15;;
80187;SDS011;73735;52.134;5.436;2024-03-23T12:14:32;5.95;;;1.40;;
80187;SDS011;73735;52.134;5.436;2024-03-23T12:17:07;5.80;;;1.65;;
80187;SDS011;73735;52.134;5.436;2024-03-23T12:19:33;5.30;;;1.40;;
80187;SDS011;73735;52.134;5.436;2024-03-23T12:21:59;4.47;;;1.35;;
80187;SDS011;73735;52.134;5.436;2024-03-23T12:24:26;5.20;;;1.10;;
80187;SDS011;73735;52.134;5.436;2024-03-23T12:26:51;6.15;;;1.25;;
80187;SDS011;73735;52.134;5.436;2024-03-23T12:29:17;6.00;;;1.40;;
80187;SDS011;73735;52.134;5.436;2024-03-23T12:31:43;6.82;;;1.27;;
80187;SDS011;73735;52.134;5.436;2024-03-23T12:34:09;10.30;;;1.58;;
80187;SDS011;73735;52.134;5.436;2024-03-23T12:36:34;7.82;;;2.30;;
80187;SDS011;73735;52.134;5.436;2024-03-23T12:39:00;8.93;;;1.80;;
80187;SDS011;73735;52.134;5.436;2024-03-23T12:41:25;6.97;;;1.52;;
80187;SDS011;73735;52.134;5.436;2024-03-23T12:43:51;4.78;;;0.95;;
80187;SDS011;73735;52.134;5.436;2024-03-23T12:46:16;5.95;;;1.20;;
80187;SDS011;73735;52.134;5.436;2024-03-23T12:48:44;8.93;;;1.30;;
80187;SDS011;73735;52.134;5.436;2024-03-23T12:51:10;4.00;;;0.80;;
80187;SDS011;73735;52.134;5.436;2024-03-23T12:53:35;4.75;;;1.08;;
80187;SDS011;73735;52.134;5.436;2024-03-23T12:56:01;6.90;;;1.50;;
80187;SDS011;73735;52.134;5.436;2024-03-23T12:58:26;5.43;;;1.25;;
80187;SDS011;73735;52.134;5.436;2024-03-23T13:00:52;5.72;;;1.15;;
80187;SDS011;73735;52.134;5.436;2024-03-23T13:03:17;5.72;;;1.20;;
80187;SDS011;73735;52.134;5.436;2024-03-23T13:05:43;4.65;;;1.20;;
80187;SDS011;73735;52.134;5.436;2024-03-23T13:08:08;5.53;;;1.52;;
80187;SDS011;73735;52.134;5.436;2024-03-23T13:10:34;6.75;;;1.13;;
80187;SDS011;73735;52.134;5.436;2024-03-23T13:12:59;5.95;;;1.90;;
80187;SDS011;73735;52.134;5.436;2024-03-23T13:15:25;4.05;;;1.00;;
80187;SDS011;73735;52.134;5.436;2024-03-23T13:17:50;8.63;;;1.55;;
80187;SDS011;73735;52.134;5.436;2024-03-23T13:20:17;4.78;;;0.98;;
80187;SDS011;73735;52.134;5.436;2024-03-23T13:22:43;3.67;;;0.95;;
80187;SDS011;73735;52.134;5.436;2024-03-23T13:25:08;8.35;;;1.25;;
80187;SDS011;73735;52.134;5.436;2024-03-23T13:27:34;5.15;;;1.02;;
80187;SDS011;73735;52.134;5.436;2024-03-23T13:29:59;3.47;;;0.60;;
80187;SDS011;73735;52.134;5.436;2024-03-23T13:32:25;2.75;;;0.63;;
80187;SDS011;73735;52.134;5.436;2024-03-23T13:34:50;1.83;;;0.50;;
80187;SDS011;73735;52.134;5.436;2024-03-23T13:37:16;3.80;;;0.50;;
80187;SDS011;73735;52.134;5.436;2024-03-23T13:39:41;1.52;;;0.32;;
80187;SDS011;73735;52.134;5.436;2024-03-23T13:42:07;1.60;;;0.40;;
80187;SDS011;73735;52.134;5.436;2024-03-23T13:44:34;1.23;;;0.40;;
80187;SDS011;73735;52.134;5.436;2024-03-23T13:46:59;3.90;;;0.75;;
80187;SDS011;73735;52.134;5.436;2024-03-23T13:49:26;1.50;;;0.50;;
80187;SDS011;73735;52.134;5.436;2024-03-23T13:51:56;3.35;;;0.85;;
80187;SDS011;73735;52.134;5.436;2024-03-23T13:54:25;6.25;;;1.00;;
80187;SDS011;73735;52.134;5.436;2024-03-23T13:56:51;3.42;;;0.73;;
80187;SDS011;73735;52.134;5.436;2024-03-23T13:59:18;4.82;;;1.10;;
80187;SDS011;73735;52.134;5.436;2024-03-23T14:01:44;4.45;;;0.88;;
80187;SDS011;73735;52.134;5.436;2024-03-23T14:04:11;3.03;;;0.80;;
80187;SDS011;73735;52.134;5.436;2024-03-23T14:06:37;5.22;;;1.65;;
80187;SDS011;73735;52.134;5.436;2024-03-23T14:09:02;6.43;;;1.27;;
80187;SDS011;73735;52.134;5.436;2024-03-23T14:11:29;6.28;;;1.15;;
80187;SDS011;73735;52.134;5.436;2024-03-23T14:13:55;4.90;;;1.20;;
80187;SDS011;73735;52.134;5.436;2024-03-23T14:16:20;7.63;;;1.33;;
80187;SDS011;73735;52.134;5.436;2024-03-23T14:18:46;5.25;;;1.25;;
80187;SDS011;73735;52.134;5.436;2024-03-23T14:21:12;7.93;;;1.25;;
80187;SDS011;73735;52.134;5.436;2024-03-23T14:23:38;4.35;;;0.90;;
80187;SDS011;73735;52.134;5.436;2024-03-23T14:26:03;5.93;;;1.27;;
80187;SDS011;73735;52.134;5.436;2024-03-23T14:28:29;6.00;;;1.20;;
80187;SDS011;73735;52.134;5.436;2024-03-23T14:30:55;5.38;;;1.08;;
80187;SDS011;73735;52.134;5.436;2024-03-23T14:33:21;6.47;;;1.10;;
80187;SDS011;73735;52.134;5.436;2024-03-23T14:35:53;4.40;;;1.25;;
80187;SDS011;73735;52.134;5.436;2024-03-23T14:38:20;4.18;;;1.20;;
80187;SDS011;73735;52.134;5.436;2024-03-23T14:40:46;7.00;;;1.20;;
80187;SDS011;73735;52.134;5.436;2024-03-23T14:43:12;6.03;;;1.10;;
80187;SDS011;73735;52.134;5.436;2024-03-23T14:48:41;6.65;;;1.27;;
80187;SDS011;73735;52.134;5.436;2024-03-23T14:51:08;4.72;;;0.90;;
80187;SDS011;73735;52.134;5.436;2024-03-23T14:53:34;5.57;;;1.58;;
80187;SDS011;73735;52.134;5.436;2024-03-23T14:56:01;5.75;;;1.27;;
80187;SDS011;73735;52.134;5.436;2024-03-23T14:58:28;6.75;;;1.55;;
80187;SDS011;73735;52.134;5.436;2024-03-23T15:01:04;6.13;;;1.13;;
80187;SDS011;73735;52.134;5.436;2024-03-23T15:03:30;4.55;;;1.00;;
80187;SDS011;73735;52.134;5.436;2024-03-23T15:05:56;4.35;;;1.00;;
80187;SDS011;73735;52.134;5.436;2024-03-23T15:08:24;4.50;;;1.00;;
80187;SDS011;73735;52.134;5.436;2024-03-23T15:10:50;4.05;;;1.00;;
80187;SDS011;73735;52.134;5.436;2024-03-23T15:13:16;5.88;;;1.35;;
80187;SDS011;73735;52.134;5.436;2024-03-23T15:15:41;5.35;;;0.93;;
80187;SDS011;73735;52.134;5.436;2024-03-23T15:18:11;6.57;;;1.15;;
80187;SDS011;73735;52.134;5.436;2024-03-23T15:23:04;9.25;;;1.48;;
80187;SDS011;73735;52.134;5.436;2024-03-23T15:25:30;7.22;;;1.27;;
80187;SDS011;73735;52.134;5.436;2024-03-23T15:27:56;5.75;;;1.10;;
80187;SDS011;73735;52.134;5.436;2024-03-23T15:30:23;3.60;;;0.90;;
80187;SDS011;73735;52.134;5.436;2024-03-23T15:32:49;4.95;;;1.05;;
80187;SDS011;73735;52.134;5.436;2024-03-23T15:35:14;3.92;;;0.85;;
80187;SDS011;73735;52.134;5.436;2024-03-23T15:37:40;3.60;;;0.73;;
80187;SDS011;73735;52.134;5.436;2024-03-23T15:40:06;3.45;;;0.90;;
80187;SDS011;73735;52.134;5.436;2024-03-23T15:42:32;5.35;;;1.13;;
80187;SDS011;73735;52.134;5.436;2024-03-23T15:44:58;2.67;;;0.80;;
80187;SDS011;73735;52.134;5.436;2024-03-23T15:47:23;5.38;;;1.55;;
80187;SDS011;73735;52.134;5.436;2024-03-23T15:49:49;6.13;;;1.48;;
80187;SDS011;73735;52.134;5.436;2024-03-23T15:52:15;7.25;;;1.60;;
80187;SDS011;73735;52.134;5.436;2024-03-23T15:54:40;8.07;;;1.25;;
80187;SDS011;73735;52.134;5.436;2024-03-23T15:57:08;5.47;;;1.00;;